Portada
METAR-TAF:

METAR-TAF

Aeroports :

Rarotonga, Illes Cook

latitud: 21-12S, longitud: 159-49W, altitud: 7 m

Observació

L'informe es va fer fa 20 minuts, a les 11:30 UTC
Vent 10 kt del Nord-Est
Temperatura 27°C
Humitat 94%
Pressió 1013 hPa
Visibilitat 10 km o més

METAR: NCRG 211130Z AUTO 05010KT 9999 SCT015/// 27/26 Q1013

Hora: 01:50 (11:50 UTC)

Pronòstic

L'informe es va fer fa 41 minuts, a les 11:09 UTC
Pronòstic vàlid del 21 a les 12 UTC al 22 a les 12 UTC
Vent 9 kt del Nord-Est
Visibilitat 10 km o més
Núvols disperses a una alçada de 1800 ft
Cel ennuvolat a una alçada de 4000 ft
xàfecs de pluja
Probabilitat 40% :
Temporalment
l' 22 a les 06 UTC al 22 a les 12 UTC
Visibilitat: 5000 m
Cel ennuvolat a una alçada de 1500 ft
xàfecs de pluja

TAF: NCRG 211109Z 2112/2212 04009KT 9999 -SHRA SCT018 BKN040 PROB40 TEMPO 2206/2212 5000 SHRA BKN015

Observacions i pronòstics meteorològics de més de 4000 aeroports (METAR i TAF).

Les estacions disponibles són els punts grocs i vermells al mapa.

Posi el ratolí al punt desitjat per veure el nom de l'estació.

Feu clic per veure les observacions i els pronòstics meteorològics.

Per canviar el mapa: feu clic els botons verds amb una creu de color negre per apropar; al botó verd amb un guió per allunyar la imatge; o en les fletxes verdes per a mapes adjacents.


METAR-TAF: